Latest Coastal Weather Observations for Albany Airport

IDW60701

Issued at 1:33 am WST Thursday 3 September 2026 (issued every 10 minutes, with the page automatically refreshed every 10 minutes)

About coastal observations | Map of coastal stations | Coastal observations for WA | Marine services | Other Formats
Station Details ID: 009999 Name: ALBANY AIRPORT Lat: -34.94 Lon: 117.82 Height: 68.4 m
Data from the previous 72 hours. | See also: Recent months at Albany Airport
Date/Time
WST
Wind Sea
Height
m
Swell Vis
km
Cloud Weather Temp
°C
Press
MSL
hPa
Rain since
9am
mm
Dir  Spd
kts
Gust
kts
Height
m
Period
s
Dir
03/01:30am NW 5 6 - - - - 10 Partly cloudy - 11.1 1020.1 2.4
03/01:00am NW 4 4 - - - - 10 Partly cloudy - 11.0 1020.4 2.4
03/12:30am NNW 4 5 - - - - 10 Partly cloudy - 10.9 1020.2 2.4
03/12:00am WNW 3 5 - - - - 10 Cloudy - 11.2 1020.6 2.4
 
Date/Time
WST
Wind Sea
Height
m
Swell Vis
km
Cloud Weather Temp
°C
Press
MSL
hPa
Rain since
9am
mm
Dir  Spd
kts
Gust
kts
Height
m
Period
s
Dir
02/11:30pm NW 4 5 - - - - 10 Partly cloudy - 11.2 1020.8 2.4
02/11:00pm NW 4 4 - - - - 10 Partly cloudy - 11.1 1020.9 2.4
02/10:30pm WNW 4 5 - - - - 10 Partly cloudy - 11.0 1021.3 2.4
02/10:00pm WNW 3 4 - - - - 10 Mostly clear - 10.9 1021.3 2.4
02/09:30pm SW 2 5 - - - - 10 Mostly clear - 11.0 1021.4 2.4
02/09:03pm CALM 0 0 - - - - 10 Cloudy - 10.5 1021.4 2.4
02/09:00pm CALM 0 0 - - - - 10 Cloudy - 10.5 1021.4 2.4
02/08:44pm CALM 0 0 - - - - 6 Partly cloudy - 10.3 1021.5 2.4
02/08:30pm CALM 0 0 - - - - 10 Mostly clear - 9.9 1021.4 2.4
02/08:00pm S 2 3 - - - - 10 Mostly clear - 10.9 1021.3 2.4
02/07:53pm S 3 4 - - - - 10 Mostly clear - 11.3 1021.3 2.4
02/07:35pm SSW 6 9 - - - - 6 Mostly clear - 11.8 1021.2 2.2
02/07:30pm SW 5 6 - - - - 10 Mostly clear - 11.6 1021.1 1.6
02/07:00pm WSW 4 5 - - - - 10 Partly cloudy - 12.3 1020.7 1.6
02/06:30pm SW 5 6 - - - - 10 Mostly clear - 12.6 1020.4 1.6
02/06:00pm SW 5 7 - - - - 10 Mostly cloudy - 12.7 1020.0 1.6
02/05:30pm SW 6 7 - - - - 10 Partly cloudy - 13.4 1019.7 1.6
02/05:00pm WSW 7 10 - - - - 10 Mostly clear - 14.1 1019.5 1.6
02/04:30pm WSW 9 14 - - - - 10 Mostly clear - 14.7 1019.2 1.6
02/04:00pm SW 9 11 - - - - 10 Mostly clear - 14.1 1019.1 1.6
02/03:30pm SW 9 15 - - - - 10 Partly cloudy - 15.1 1018.9 1.4
02/03:00pm SW 9 14 - - - - 10 Cloudy Recent precip. 15.4 1018.7 1.4
02/02:30pm SW 12 17 - - - - 10 Partly cloudy - 16.1 1018.5 1.2
02/02:02pm WSW 9 14 - - - - 10 Mostly clear - 15.5 1018.5 1.2
02/02:00pm WSW 9 14 - - - - 10 Mostly clear - 15.5 1018.6 1.2
02/01:47pm WSW 13 20 - - - - 6 Partly cloudy - 14.5 1018.7 1.2
02/01:30pm WSW 14 22 - - - - 10 Mostly clear - 16.4 1018.3 1.2
02/01:00pm SW 14 23 - - - - 10 Mostly clear - 16.5 1018.3 1.2
02/12:30pm WSW 11 18 - - - - 10 Mostly clear - 15.7 1018.5 1.2
02/12:00pm WSW 11 15 - - - - 10 Cloudy Rain 15.4 1018.6 1.2
02/11:59am WSW 10 15 - - - - 10 Partly cloudy - 15.7 1018.7 1.2
02/11:58am WSW 10 15 - - - - 10 Partly cloudy - 15.6 1018.7 1.2
02/11:30am WSW 12 18 - - - - 4 Partly cloudy - 14.0 1019.0 1.0
02/11:00am WNW 12 17 - - - - 4 Partly cloudy - 14.7 1019.0 0.0
02/10:51am WNW 11 17 - - - - 6 Partly cloudy - 14.7 1019.0 0.0
02/10:46am W 11 15 - - - - 10 Partly cloudy - 15.0 1019.1 0.0
02/10:30am W 11 17 - - - - 4 Cloudy - 14.4 1019.1 0.0
02/10:23am W 13 18 - - - - 6 Partly cloudy - 14.5 1019.1 0.0
02/10:15am W 12 17 - - - - 10 Partly cloudy - 14.7 1019.0 0.0
02/10:00am W 12 16 - - - - 3 Partly cloudy - 14.0 1019.1 0.0
02/09:52am WNW 14 21 - - - - 6 Partly cloudy - 14.2 1019.0 0.0
02/09:44am WNW 13 21 - - - - 10 Cloudy - 14.6 1019.0 0.0
02/09:30am W 12 18 - - - - 6 Cloudy - 13.9 1019.1 0.0
02/09:29am WNW 12 18 - - - - 6 Cloudy - 13.8 1019.0 0.0
02/09:00am WNW 12 15 - - - - 10 Cloudy - 13.8 1018.9 0.0
02/08:41am WNW 12 17 - - - - 10 Partly cloudy - 13.6 1018.9 0.0
02/08:40am WNW 12 17 - - - - 10 Partly cloudy - 13.5 1018.8 0.0
02/08:30am WNW 11 14 - - - - 10 Partly cloudy - 13.2 1018.8 0.0
02/08:07am WNW 12 15 - - - - 6 Cloudy - 12.4 1018.8 0.0
02/08:00am WNW 11 14 - - - - 10 Cloudy - 12.7 1018.7 0.0
02/07:35am NW 12 15 - - - - 10 Partly cloudy - 12.5 1018.6 0.0
02/07:30am NW 11 14 - - - - 10 Partly cloudy - 12.7 1018.6 0.0
02/07:00am WNW 12 16 - - - - 10 Cloudy - 12.0 1018.6 0.0
02/06:30am WNW 11 14 - - - - 10 Partly cloudy - 11.9 1018.4 0.0
02/06:00am NW 12 16 - - - - 10 Cloudy - 11.7 1018.3 0.0
02/05:30am NW 11 14 - - - - 10 Mostly clear - 11.9 1018.4 0.0
02/05:00am NW 10 13 - - - - 10 Partly cloudy - 11.8 1018.4 0.0
02/04:30am NW 11 15 - - - - 10 Partly cloudy - 11.9 1018.4 0.0
02/04:00am WNW 11 14 - - - - 10 Partly cloudy - 11.9 1018.5 0.0
02/03:30am NW 11 15 - - - - 10 Partly cloudy - 12.2 1018.7 0.0
02/03:00am NW 9 12 - - - - 10 Cloudy - 12.0 1019.0 0.0
02/02:30am NW 10 13 - - - - 10 Cloudy - 12.2 1019.2 0.0
02/02:00am NW 10 13 - - - - 10 Partly cloudy - 12.3 1019.4 0.0
02/01:30am NW 11 15 - - - - 10 Cloudy - 12.4 1019.4 0.0
02/01:00am NW 9 12 - - - - 10 Cloudy - 12.2 1019.7 0.0
02/12:30am NW 11 15 - - - - 10 Cloudy - 12.3 1019.7 0.0
02/12:00am NW 8 11 - - - - 10 Cloudy - 12.1 1020.1 0.0
 
Date/Time
WST
Wind Sea
Height
m
Swell Vis
km
Cloud Weather Temp
°C
Press
MSL
hPa
Rain since
9am
mm
Dir  Spd
kts
Gust
kts
Height
m
Period
s
Dir
01/11:30pm NW 8 10 - - - - 10 Cloudy - 12.1 1020.4 0.0
01/11:00pm NW 8 11 - - - - 10 Cloudy - 12.1 1020.7 0.0
01/10:30pm NW 9 11 - - - - 10 Cloudy - 12.2 1021.0 0.0
01/10:00pm NW 12 16 - - - - 10 Cloudy - 12.8 1021.3 0.0
01/09:30pm NW 10 14 - - - - 10 Cloudy - 12.8 1021.7 0.0
01/09:00pm WNW 12 16 - - - - 10 Mostly cloudy - 12.9 1021.8 0.0
01/08:30pm WNW 8 11 - - - - 10 Cloudy - 12.2 1022.0 0.0
01/08:00pm WNW 7 9 - - - - 10 Cloudy - 12.5 1022.2 0.0
01/07:30pm WNW 7 9 - - - - 10 Cloudy - 13.0 1022.1 0.0
01/07:00pm W 10 14 - - - - 10 Cloudy - 13.4 1022.0 0.0
01/06:30pm W 8 11 - - - - 10 Cloudy - 13.6 1022.0 0.0
01/06:00pm W 9 11 - - - - 10 Cloudy - 13.8 1021.9 0.0
01/05:30pm WSW 8 13 - - - - 10 Partly cloudy - 14.3 1021.7 0.0
01/05:00pm W 7 10 - - - - 10 Cloudy - 15.0 1021.6 0.0
01/04:30pm W 9 12 - - - - 10 Cloudy - 15.1 1021.8 0.0
01/04:00pm W 9 12 - - - - 10 Cloudy - 15.3 1021.9 0.0
01/03:30pm W 11 15 - - - - 10 Mostly clear - 15.6 1021.7 0.0
01/03:00pm W 11 15 - - - - 10 Cloudy - 15.7 1021.7 0.0
01/02:30pm W 10 15 - - - - 10 Cloudy - 16.1 1021.7 0.0
01/02:00pm W 10 17 - - - - 10 Cloudy - 16.1 1021.8 0.0
01/01:30pm W 12 14 - - - - 10 Partly cloudy - 16.1 1022.1 0.0
01/01:00pm W 11 16 - - - - 10 Cloudy - 15.8 1022.4 0.0
01/12:30pm W 11 17 - - - - 10 Partly cloudy - 16.7 1022.4 0.0
01/12:00pm WNW 13 17 - - - - 10 Cloudy - 15.7 1022.7 0.0
01/11:30am W 11 14 - - - - 10 Cloudy - 15.7 1023.0 0.0
01/11:00am W 10 21 - - - - 10 Cloudy - 15.4 1023.0 0.0
01/10:30am WNW 9 13 - - - - 10 Partly cloudy - 15.2 1023.1 0.0
01/10:00am WNW 9 12 - - - - 10 Cloudy - 13.6 1023.4 0.0
01/09:30am WNW 9 12 - - - - 10 Cloudy - 12.7 1023.5 0.0
01/09:00am NW 8 12 - - - - 10 Mostly cloudy - 12.1 1023.6 5.0
01/08:30am WNW 8 10 - - - - 10 Cloudy - 11.2 1023.7 5.0
01/08:00am NW 8 11 - - - - 10 Partly cloudy - 10.8 1023.5 5.0
01/07:30am NW 8 9 - - - - 10 Cloudy - 9.4 1023.2 5.0
01/07:00am NW 7 9 - - - - 10 Partly cloudy - 8.8 1023.1 5.0
01/06:30am NW 7 9 - - - - 10 Partly cloudy - 8.0 1022.6 5.0
01/06:00am NW 7 8 - - - - 10 Partly cloudy - 7.8 1022.5 5.0
01/05:30am NW 8 8 - - - - 10 - - 8.0 1022.2 5.0
01/05:00am NW 5 7 - - - - 10 Partly cloudy - 8.5 1022.0 5.0
01/04:30am WNW 6 7 - - - - 10 Cloudy - 9.2 1021.8 5.0
01/04:00am WNW 7 8 - - - - 10 Cloudy - 9.1 1021.7 5.0
01/03:30am NW 7 9 - - - - 10 Partly cloudy - 8.6 1021.5 5.0
01/03:00am WNW 7 8 - - - - 10 Mostly clear - 7.5 1021.7 5.0
01/02:30am NW 6 7 - - - - 10 Partly cloudy - 8.1 1021.6 5.0
01/02:00am WNW 6 7 - - - - 10 Partly cloudy - 8.8 1021.7 5.0
01/01:30am WNW 7 9 - - - - 10 Mostly clear - 9.0 1021.7 5.0
01/01:00am NW 9 10 - - - - 10 Mostly clear - 9.2 1021.9 5.0
01/12:30am WNW 8 9 - - - - 10 Mostly clear - 9.0 1021.8 5.0
01/12:00am NW 7 8 - - - - 10 Mostly cloudy Drizzle 9.6 1021.8 5.0
 
Date/Time
WST
Wind Sea
Height
m
Swell Vis
km
Cloud Weather Temp
°C
Press
MSL
hPa
Rain since
9am
mm
Dir  Spd
kts
Gust
kts
Height
m
Period
s
Dir
31/11:30pm WNW 7 8 - - - - 10 Partly cloudy - 9.9 1021.8 5.0
31/11:00pm NW 7 9 - - - - 10 Partly cloudy - 10.1 1021.8 5.0
31/10:30pm NW 7 9 - - - - 10 Mostly clear - 10.1 1021.8 5.0
31/10:00pm NW 7 9 - - - - 10 Partly cloudy - 10.2 1021.7 4.8
31/09:30pm WNW 6 7 - - - - 10 Mostly clear - 10.3 1021.4 4.6
31/09:00pm WNW 5 7 - - - - 10 Cloudy Showers 10.3 1021.7 4.6
31/08:30pm NW 7 9 - - - - 10 Mostly clear - 10.3 1021.4 4.4
31/08:00pm WNW 7 9 - - - - 10 Mostly clear - 10.1 1021.0 4.4
31/07:30pm WSW 8 11 - - - - 10 Mostly clear - 10.1 1020.7 4.2
31/07:20pm WSW 10 16 - - - - 10 Mostly clear - 10.0 1020.7 4.2
31/07:00pm SW 14 19 - - - - 7 Partly cloudy - 10.3 1020.6 3.8
31/06:52pm SW 14 19 - - - - 8 Mostly clear - 10.5 1020.4 3.6
31/06:30pm SW 10 15 - - - - 6 Partly cloudy - 11.2 1019.8 3.6
31/06:27pm SW 10 15 - - - - 6 Partly cloudy - 11.2 1019.7 3.4
31/06:00pm SSW 14 19 - - - - 8 Cloudy Showers 11.2 1019.0 2.8
31/05:35pm SW 15 22 - - - - 6 Partly cloudy - 11.5 1018.4 2.2
31/05:33pm SW 15 22 - - - - 7 Mostly clear - 11.5 1018.4 2.2
31/05:30pm SW 16 22 - - - - 7 Partly cloudy - 11.4 1018.3 2.2
31/05:21pm SSW 15 23 - - - - 6 Partly cloudy - 11.6 1018.2 2.0
31/05:00pm SSW 16 25 - - - - 5 Partly cloudy - 12.3 1017.5 1.8
31/04:57pm SSW 15 25 - - - - 6 Partly cloudy - 12.4 1017.3 1.8
31/04:51pm SSW 14 22 - - - - 6 Cloudy - 12.5 1017.2 1.6
31/04:32pm SSW 17 28 - - - - 5 Partly cloudy - 12.7 1016.4 1.2
31/04:30pm SSW 17 26 - - - - 5 Partly cloudy - 12.8 1016.3 1.2
31/04:23pm SW 20 28 - - - - 5 Partly cloudy - 13.4 1016.2 0.8
31/04:21pm SW 20 28 - - - - 6 Partly cloudy - 13.6 1016.1 0.6
31/04:17pm SW 19 28 - - - - 10 Partly cloudy - 14.0 1015.9 0.4
31/04:15pm SW 17 28 - - - - 10 Mostly clear - 14.4 1015.9 0.4
31/04:07pm WSW 19 27 - - - - 6 Mostly clear - 15.4 1015.5 0.4
31/04:03pm WSW 20 27 - - - - 4 Mostly clear - 15.5 1015.3 0.4
31/04:00pm WSW 20 27 - - - - 5 Mostly clear - 15.7 1015.2 0.4
31/03:58pm WSW 18 27 - - - - 6 Mostly clear - 15.9 1015.1 0.2
31/03:53pm WSW 12 27 - - - - 10 Mostly clear - 17.9 1014.7 0.0
31/03:30pm W 11 16 - - - - 10 Partly cloudy - 19.7 1014.2 0.0
31/03:00pm W 11 15 - - - - 10 Cloudy - 19.9 1014.1 0.0
31/02:30pm WNW 16 21 - - - - 10 Mostly clear - 20.5 1014.1 0.0
31/02:00pm WNW 19 23 - - - - 10 Partly cloudy - 21.2 1014.0 0.0
31/01:30pm W 15 21 - - - - 10 Partly cloudy - 20.2 1014.1 0.0
31/01:00pm WNW 12 16 - - - - 10 Mostly clear - 20.7 1014.0 0.0
31/12:30pm W 12 18 - - - - 10 Partly cloudy - 19.9 1014.2 0.0
31/12:00pm WNW 14 19 - - - - 10 Cloudy - 21.1 1014.3 0.0
31/11:30am NW 13 17 - - - - 10 Mostly clear - 21.5 1014.7 0.0
31/11:00am WNW 13 20 - - - - 10 Partly cloudy - 20.1 1015.1 0.0
31/10:30am NW 13 17 - - - - 10 - - 20.1 1015.2 0.0
31/10:00am NW 14 17 - - - - 10 - - 19.3 1015.6 0.0
31/09:30am NW 12 16 - - - - 10 - - 18.6 1015.9 0.0
31/09:00am NW 11 14 - - - - 10 - - 17.7 1016.1 0.2
31/08:30am NW 9 11 - - - - 10 - - 16.7 1016.2 0.2
31/08:00am NNW 7 8 - - - - 10 Partly cloudy - 15.4 1016.4 0.2
31/07:30am NNW 7 8 - - - - 10 Partly cloudy - 14.5 1016.3 0.2
31/07:10am NW 7 9 - - - - 10 Mostly clear - 14.1 1016.1 0.2
31/07:00am WNW 8 11 - - - - 10 Partly cloudy - 13.9 1016.1 0.2
31/06:41am WNW 9 13 - - - - 10 Partly cloudy - 13.8 1016.1 0.2
31/06:30am W 9 11 - - - - 10 - - 13.7 1015.9 0.2
31/06:00am WNW 7 8 - - - - 10 - - 13.2 1015.8 0.2
31/05:30am WNW 8 9 - - - - 10 - - 13.3 1015.7 0.2
31/05:00am NNW 7 8 - - - - 10 - - 13.6 1015.6 0.2
31/04:30am NNW 7 9 - - - - 10 - - 13.9 1015.5 0.2
31/04:00am NNW 8 9 - - - - 10 - - 14.4 1015.4 0.2
31/03:30am NNW 9 11 - - - - 10 - - 14.9 1015.4 0.2
31/03:00am NNW 8 10 - - - - 10 - - 14.8 1015.7 0.2
31/02:30am N 6 7 - - - - 10 - - 13.7 1015.9 0.2
31/02:00am N 6 7 - - - - 10 - - 12.3 1016.2 0.2

Other formats

Comma delimited format used in spreadsheet applications
http://www.bom.gov.au/fwo/IDW60701/IDW60701.94802.axf

JavaScript Object Notation format (JSON) in row-major order
http://www.bom.gov.au/fwo/IDW60701/IDW60701.94802.json

Data quality

Most of these data are generated automatically and are frequently updated. Quality checks on data are not normally performed. It is possible for incorrect values to appear. Refer to information at About Latest Weather Observations and please check the disclaimer before using these data.